TimeCST,TemperatureF,Dew PointF,Humidity,Sea Level PressureIn,VisibilityMPH,Wind Direction,Wind SpeedMPH,Gust SpeedMPH,PrecipitationIn,Events,Conditions,WindDirDegrees,DateUTC
12:08 AM,28.9,5.0,36,-9999,-9999.0,North,8.1,-,N/A,,Unknown,350,2013-01-12 06:08:00
12:28 AM,28.0,4.1,36,-9999,-9999.0,NW,8.1,-,N/A,,Unknown,320,2013-01-12 06:28:00
12:48 AM,27.0,6.1,41,-9999,-9999.0,North,3.5,-,N/A,,Unknown,350,2013-01-12 06:48:00
1:08 AM,25.0,5.0,43,-9999,-9999.0,NNW,5.8,-,N/A,,Unknown,340,2013-01-12 07:08:00
1:28 AM,26.1,8.1,47,-9999,-9999.0,NW,5.8,-,N/A,,Unknown,320,2013-01-12 07:28:00
1:48 AM,26.1,10.0,51,-9999,-9999.0,NNW,6.9,-,N/A,,Unknown,340,2013-01-12 07:48:00
2:08 AM,24.1,11.1,58,-9999,-9999.0,North,3.5,-,N/A,,Unknown,10,2013-01-12 08:08:00
2:28 AM,24.1,11.1,58,-9999,-9999.0,NW,4.6,-,N/A,,Unknown,320,2013-01-12 08:28:00
2:48 AM,24.1,12.0,60,-9999,-9999.0,NNW,8.1,-,N/A,,Unknown,340,2013-01-12 08:48:00
3:08 AM,23.0,12.0,63,-9999,-9999.0,North,5.8,-,N/A,,Unknown,10,2013-01-12 09:08:00
3:28 AM,21.0,12.0,68,-9999,-9999.0,NNE,4.6,-,N/A,,Unknown,30,2013-01-12 09:28:00
3:48 AM,21.0,12.0,68,-9999,-9999.0,NNE,6.9,-,N/A,,Unknown,30,2013-01-12 09:48:00
4:08 AM,19.9,12.0,71,-9999,-9999.0,ENE,6.9,-,N/A,,Unknown,60,2013-01-12 10:08:00
4:28 AM,19.0,13.1,78,-9999,-9999.0,ENE,5.8,-,N/A,,Unknown,60,2013-01-12 10:28:00
4:48 AM,19.0,12.0,74,-9999,-9999.0,NE,6.9,-,N/A,,Unknown,40,2013-01-12 10:48:00
5:08 AM,19.0,12.0,74,-9999,-9999.0,NE,5.8,-,N/A,,Unknown,40,2013-01-12 11:08:00
5:28 AM,18.0,11.1,75,-9999,-9999.0,NNE,5.8,-,N/A,,Unknown,30,2013-01-12 11:28:00
5:48 AM,17.1,11.1,77,-9999,-9999.0,NNE,5.8,-,N/A,,Unknown,30,2013-01-12 11:48:00
6:08 AM,17.1,10.0,74,-9999,-9999.0,NE,6.9,-,N/A,,Unknown,40,2013-01-12 12:08:00
6:28 AM,16.0,10.0,77,-9999,-9999.0,NE,5.8,-,N/A,,Unknown,50,2013-01-12 12:28:00
6:48 AM,16.0,10.0,77,-9999,-9999.0,ENE,5.8,-,N/A,,Unknown,60,2013-01-12 12:48:00
7:08 AM,15.1,9.1,77,-9999,-9999.0,NNE,4.6,-,N/A,,Unknown,30,2013-01-12 13:08:00
7:28 AM,16.0,8.1,71,-9999,-9999.0,NNE,4.6,-,N/A,,Unknown,20,2013-01-12 13:28:00
7:48 AM,16.0,8.1,71,-9999,-9999.0,North,5.8,-,N/A,,Unknown,10,2013-01-12 13:48:00
8:08 AM,16.0,8.1,71,-9999,-9999.0,North,5.8,-,N/A,,Unknown,350,2013-01-12 14:08:00
8:28 AM,15.1,6.1,68,-9999,-9999.0,North,8.1,-,N/A,,Unknown,10,2013-01-12 14:28:00
8:48 AM,16.0,8.1,71,-9999,-9999.0,NNE,8.1,-,N/A,,Unknown,30,2013-01-12 14:48:00
9:08 AM,17.1,7.2,65,-9999,-9999.0,NNE,10.4,-,N/A,,Unknown,20,2013-01-12 15:08:00
9:28 AM,18.0,7.2,63,-9999,-9999.0,North,9.2,-,N/A,,Unknown,10,2013-01-12 15:28:00
9:48 AM,19.0,7.2,60,-9999,-9999.0,North,9.2,-,N/A,,Unknown,10,2013-01-12 15:48:00
10:08 AM,19.0,7.2,60,-9999,-9999.0,NNE,9.2,-,N/A,,Unknown,30,2013-01-12 16:08:00
10:28 AM,19.9,7.2,58,-9999,-9999.0,NNE,11.5,-,N/A,,Unknown,30,2013-01-12 16:28:00
10:48 AM,19.0,5.0,54,-9999,-9999.0,North,11.5,-,N/A,,Unknown,10,2013-01-12 16:48:00
11:08 AM,19.0,6.1,57,-9999,-9999.0,North,9.2,-,N/A,,Unknown,10,2013-01-12 17:08:00
11:28 AM,19.9,6.1,55,-9999,-9999.0,North,10.4,-,N/A,,Unknown,10,2013-01-12 17:28:00
11:48 AM,21.0,6.1,53,-9999,-9999.0,North,10.4,-,N/A,,Unknown,360,2013-01-12 17:48:00
12:08 PM,21.0,5.0,50,-9999,-9999.0,North,13.8,-,N/A,,Unknown,10,2013-01-12 18:08:00
12:28 PM,21.9,6.1,51,-9999,-9999.0,North,13.8,-,N/A,,Unknown,350,2013-01-12 18:28:00
12:48 PM,21.9,6.1,51,-9999,-9999.0,North,10.4,-,N/A,,Unknown,350,2013-01-12 18:48:00
1:08 PM,21.9,6.1,51,-9999,-9999.0,North,11.5,-,N/A,,Unknown,360,2013-01-12 19:08:00
1:28 PM,21.9,7.2,53,-9999,-9999.0,North,9.2,-,N/A,,Unknown,360,2013-01-12 19:28:00
1:48 PM,21.9,6.1,51,-9999,-9999.0,North,11.5,-,N/A,,Unknown,10,2013-01-12 19:48:00
2:08 PM,21.9,7.2,53,-9999,-9999.0,North,6.9,-,N/A,,Unknown,10,2013-01-12 20:08:00
2:28 PM,23.0,6.1,48,-9999,-9999.0,North,11.5,-,N/A,,Unknown,10,2013-01-12 20:28:00
2:48 PM,23.0,6.1,48,-9999,-9999.0,NNE,11.5,-,N/A,,Unknown,20,2013-01-12 20:48:00
3:08 PM,24.1,6.1,46,-9999,-9999.0,North,10.4,-,N/A,,Unknown,350,2013-01-12 21:08:00
3:28 PM,23.0,5.0,46,-9999,-9999.0,North,12.7,-,N/A,,Unknown,10,2013-01-12 21:28:00
3:48 PM,24.1,6.1,46,-9999,-9999.0,North,10.4,-,N/A,,Unknown,10,2013-01-12 21:48:00
4:08 PM,25.0,8.1,49,-9999,-9999.0,North,9.2,-,N/A,,Unknown,10,2013-01-12 22:08:00
4:28 PM,25.0,8.1,49,-9999,-9999.0,NE,10.4,-,N/A,,Unknown,40,2013-01-12 22:28:00
4:50 PM,25.0,8.1,49,-9999,-9999.0,NE,5.8,-,N/A,,Unknown,40,2013-01-12 22:50:00
5:08 PM,24.1,7.2,49,-9999,-9999.0,NNE,9.2,-,N/A,,Unknown,30,2013-01-12 23:08:00
5:28 PM,24.1,7.2,49,-9999,-9999.0,NNE,10.4,-,N/A,,Unknown,30,2013-01-12 23:28:00
5:49 PM,21.9,7.2,53,-9999,-9999.0,NE,6.9,-,N/A,,Unknown,40,2013-01-12 23:49:00
6:08 PM,21.0,7.2,55,-9999,-9999.0,NNE,5.8,-,N/A,,Unknown,30,2013-01-13 00:08:00
6:28 PM,19.9,6.1,55,-9999,-9999.0,NNE,4.6,-,N/A,,Unknown,30,2013-01-13 00:28:00
6:48 PM,19.0,7.2,60,-9999,-9999.0,NNE,4.6,-,N/A,,Unknown,30,2013-01-13 00:48:00
7:08 PM,19.0,7.2,60,-9999,-9999.0,NNE,4.6,-,N/A,,Unknown,30,2013-01-13 01:08:00
7:28 PM,18.0,6.1,60,-9999,-9999.0,NNE,5.8,-,N/A,,Unknown,30,2013-01-13 01:28:00
7:48 PM,18.0,6.1,60,-9999,-9999.0,NE,5.8,-,N/A,,Unknown,40,2013-01-13 01:48:00
8:08 PM,18.0,6.1,60,-9999,-9999.0,NE,4.6,-,N/A,,Unknown,40,2013-01-13 02:08:00
8:28 PM,17.1,6.1,62,-9999,-9999.0,NE,4.6,-,N/A,,Unknown,40,2013-01-13 02:28:00
8:48 PM,18.0,7.2,63,-9999,-9999.0,NE,3.5,-,N/A,,Unknown,40,2013-01-13 02:48:00
9:08 PM,18.0,7.2,63,-9999,-9999.0,NE,4.6,-,N/A,,Unknown,40,2013-01-13 03:08:00
9:28 PM,18.0,7.2,63,-9999,-9999.0,NNE,5.8,-,N/A,,Unknown,30,2013-01-13 03:28:00
9:48 PM,18.0,7.2,63,-9999,-9999.0,NE,9.2,-,N/A,,Unknown,40,2013-01-13 03:48:00
10:08 PM,17.1,7.2,65,-9999,-9999.0,NNE,8.1,-,N/A,,Unknown,20,2013-01-13 04:08:00
10:28 PM,17.1,6.1,62,-9999,-9999.0,NNE,10.4,-,N/A,,Unknown,20,2013-01-13 04:28:00
10:48 PM,17.1,6.1,62,-9999,-9999.0,NNE,10.4,-,N/A,,Unknown,20,2013-01-13 04:48:00
11:08 PM,17.1,6.1,62,-9999,-9999.0,NNE,11.5,-,N/A,,Unknown,20,2013-01-13 05:08:00
11:28 PM,17.1,5.0,59,-9999,-9999.0,NNE,12.7,-,N/A,,Unknown,20,2013-01-13 05:28:00
11:48 PM,16.0,4.1,60,-9999,-9999.0,North,10.4,-,N/A,,Unknown,10,2013-01-13 05:48:00